Quillacollo, Bolivia
Current Conditions -  °F | °C
As of 10:00 AM on Wednesday 22 Oct 2014 (Local Time) from SLCB Reporting Station
Broken Clouds Broken Clouds  
Wind Chill: 64°   Ceiling: 7000
Heat Index: 64°   Visibility: 5mi
Dew Point: 52°   Wind: 5mph
Humidity: 64%   Direction: 280°W
Pressure: 30.39"   Gusts: NA
Location:  17.4°S, 66.28°W
Report Text: SLCB 221400Z 28004KT 8000 FEW020 BKN070 18/11 Q1029
Loading
Personal Weather Stations






























Interactive Weather Map
Tropical Storm Tracking
New forecast layout! Learn more

10-Day Weather Forecast

Advertisements
Track Severe Weather on mobile